CheckWX is a tool to help pilots better visualize weather data.  It is not intended as a substitute for an official pre-flight weather briefing.

06:08:48 UTC

KPNA METAR
Ralph Wenz Field Airport
Pinedale, Wyoming, USA
Current

34 mins ago

KPNA 230535Z AUTO 00000KT 10SM OVC032 02/02 A3027 RMK AO2
Observed
Apr-23 @ 05:35 UTC
Visibility
10 SM
Flight Rules
VFR
Cloud Levels
  • Overcast at 3,200' AGL
Temperature
C / 36°F
Dewpoint
C / 36°F
Humidity
100%
Altimeter
30.27" Hg
Pressure
1025.02 hPa
Previous

54 mins ago

KPNA 230515Z AUTO 00000KT 10SM BKN032 02/02 A3027 RMK AO2
Observed
Apr-23 @ 05:15 UTC
Visibility
10 SM
Flight Rules
VFR
Cloud Levels
  • Broken at 3,200' AGL
Temperature
C / 36°F
Dewpoint
C / 36°F
Humidity
100%
Altimeter
30.27" Hg
Pressure
1025.02 hPa
Previous

1 hour ago

KPNA 230455Z AUTO 11006KT 10SM CLR 02/02 A3027 RMK AO2
Observed
Apr-23 @ 04:55 UTC
Wind
  • 110° at 6 KTS
Visibility
10 SM
Flight Rules
VFR
Cloud Levels
  • Clear skies
Temperature
C / 36°F
Dewpoint
C / 36°F
Humidity
100%
Altimeter
30.27" Hg
Pressure
1025.02 hPa